sensor_id;sensor_type;location;lat;lon;timestamp;temperature;humidity
24664;DHT22;12791;50.992;13.788;2023-06-26T00:02:16;19.40;96.50
24664;DHT22;12791;50.992;13.788;2023-06-26T00:04:43;19.40;96.80
24664;DHT22;12791;50.992;13.788;2023-06-26T00:07:10;19.40;96.80
24664;DHT22;12791;50.992;13.788;2023-06-26T00:09:37;19.30;97.40
24664;DHT22;12791;50.992;13.788;2023-06-26T00:12:04;19.30;97.80
24664;DHT22;12791;50.992;13.788;2023-06-26T00:14:32;19.20;97.80
24664;DHT22;12791;50.992;13.788;2023-06-26T00:16:59;19.20;98.30
24664;DHT22;12791;50.992;13.788;2023-06-26T00:19:25;19.20;98.50
24664;DHT22;12791;50.992;13.788;2023-06-26T00:21:52;19.20;99.00
24664;DHT22;12791;50.992;13.788;2023-06-26T00:24:19;19.10;99.50
24664;DHT22;12791;50.992;13.788;2023-06-26T00:26:47;19.10;99.50
24664;DHT22;12791;50.992;13.788;2023-06-26T00:29:14;19.10;99.90
24664;DHT22;12791;50.992;13.788;2023-06-26T00:31:42;19.00;99.90
24664;DHT22;12791;50.992;13.788;2023-06-26T00:34:08;19.00;99.90
24664;DHT22;12791;50.992;13.788;2023-06-26T00:36:35;19.00;99.90
24664;DHT22;12791;50.992;13.788;2023-06-26T00:39:01;18.90;99.90
24664;DHT22;12791;50.992;13.788;2023-06-26T00:41:28;18.90;99.90
24664;DHT22;12791;50.992;13.788;2023-06-26T00:43:55;18.90;99.90
24664;DHT22;12791;50.992;13.788;2023-06-26T00:46:22;18.90;99.90
24664;DHT22;12791;50.992;13.788;2023-06-26T00:48:52;18.80;99.90
24664;DHT22;12791;50.992;13.788;2023-06-26T00:51:20;18.80;99.90
24664;DHT22;12791;50.992;13.788;2023-06-26T00:53:47;18.70;99.90
24664;DHT22;12791;50.992;13.788;2023-06-26T00:56:15;18.80;99.90
24664;DHT22;12791;50.992;13.788;2023-06-26T00:58:43;18.80;99.90
24664;DHT22;12791;50.992;13.788;2023-06-26T01:01:11;18.70;99.90
24664;DHT22;12791;50.992;13.788;2023-06-26T01:03:43;18.70;99.90
24664;DHT22;12791;50.992;13.788;2023-06-26T01:06:14;18.70;99.90
24664;DHT22;12791;50.992;13.788;2023-06-26T01:08:41;18.70;99.90
24664;DHT22;12791;50.992;13.788;2023-06-26T01:11:09;18.60;99.90
24664;DHT22;12791;50.992;13.788;2023-06-26T01:13:36;18.60;99.90
24664;DHT22;12791;50.992;13.788;2023-06-26T01:16:06;18.60;99.90
24664;DHT22;12791;50.992;13.788;2023-06-26T01:22:02;18.50;99.90
24664;DHT22;12791;50.992;13.788;2023-06-26T01:24:33;18.40;99.90
24664;DHT22;12791;50.992;13.788;2023-06-26T01:27:05;18.40;99.90
24664;DHT22;12791;50.992;13.788;2023-06-26T01:29:37;18.40;99.90
24664;DHT22;12791;50.992;13.788;2023-06-26T01:32:05;18.40;99.90
24664;DHT22;12791;50.992;13.788;2023-06-26T01:34:33;18.40;99.90
24664;DHT22;12791;50.992;13.788;2023-06-26T01:37:00;18.40;99.90
24664;DHT22;12791;50.992;13.788;2023-06-26T01:39:29;18.30;99.90
24664;DHT22;12791;50.992;13.788;2023-06-26T01:41:56;18.40;99.90
24664;DHT22;12791;50.992;13.788;2023-06-26T01:44:29;18.40;99.90
24664;DHT22;12791;50.992;13.788;2023-06-26T01:47:02;18.30;99.90
24664;DHT22;12791;50.992;13.788;2023-06-26T01:49:39;18.30;99.90
24664;DHT22;12791;50.992;13.788;2023-06-26T01:52:14;18.30;99.90
24664;DHT22;12791;50.992;13.788;2023-06-26T01:54:49;18.20;99.90
24664;DHT22;12791;50.992;13.788;2023-06-26T01:57:20;18.20;99.90
24664;DHT22;12791;50.992;13.788;2023-06-26T01:59:51;18.10;99.90
24664;DHT22;12791;50.992;13.788;2023-06-26T02:02:19;18.10;99.90
24664;DHT22;12791;50.992;13.788;2023-06-26T02:04:46;18.10;99.90
24664;DHT22;12791;50.992;13.788;2023-06-26T02:07:15;18.10;99.90
24664;DHT22;12791;50.992;13.788;2023-06-26T02:09:42;18.00;99.90
24664;DHT22;12791;50.992;13.788;2023-06-26T02:12:10;18.10;99.90
24664;DHT22;12791;50.992;13.788;2023-06-26T02:14:37;18.10;99.90
24664;DHT22;12791;50.992;13.788;2023-06-26T02:17:06;18.00;99.90
24664;DHT22;12791;50.992;13.788;2023-06-26T02:19:34;18.10;99.90
24664;DHT22;12791;50.992;13.788;2023-06-26T02:22:01;18.00;99.90
24664;DHT22;12791;50.992;13.788;2023-06-26T02:24:28;18.00;99.90
24664;DHT22;12791;50.992;13.788;2023-06-26T02:26:59;17.90;99.90
24664;DHT22;12791;50.992;13.788;2023-06-26T02:29:29;17.90;99.90
24664;DHT22;12791;50.992;13.788;2023-06-26T02:31:57;17.80;99.90
24664;DHT22;12791;50.992;13.788;2023-06-26T02:34:26;17.80;99.90
24664;DHT22;12791;50.992;13.788;2023-06-26T02:36:55;17.80;99.90
24664;DHT22;12791;50.992;13.788;2023-06-26T02:39:24;17.80;99.90
24664;DHT22;12791;50.992;13.788;2023-06-26T02:41:51;17.80;99.90
24664;DHT22;12791;50.992;13.788;2023-06-26T02:44:20;17.80;99.90
24664;DHT22;12791;50.992;13.788;2023-06-26T02:46:48;17.80;99.90
24664;DHT22;12791;50.992;13.788;2023-06-26T02:49:15;17.70;99.90
24664;DHT22;12791;50.992;13.788;2023-06-26T02:51:43;17.70;99.90
24664;DHT22;12791;50.992;13.788;2023-06-26T02:54:11;17.70;99.90
24664;DHT22;12791;50.992;13.788;2023-06-26T02:56:39;17.80;99.90
24664;DHT22;12791;50.992;13.788;2023-06-26T02:59:06;17.80;99.90
24664;DHT22;12791;50.992;13.788;2023-06-26T03:01:33;17.90;99.90
24664;DHT22;12791;50.992;13.788;2023-06-26T03:04:00;17.80;99.90
24664;DHT22;12791;50.992;13.788;2023-06-26T03:06:27;17.90;99.90
24664;DHT22;12791;50.992;13.788;2023-06-26T03:08:57;17.90;99.90
24664;DHT22;12791;50.992;13.788;2023-06-26T03:11:25;17.90;99.90
24664;DHT22;12791;50.992;13.788;2023-06-26T03:13:53;17.90;99.90
24664;DHT22;12791;50.992;13.788;2023-06-26T03:16:21;17.80;99.90
24664;DHT22;12791;50.992;13.788;2023-06-26T03:18:48;17.90;99.90
24664;DHT22;12791;50.992;13.788;2023-06-26T03:21:15;17.80;99.90
24664;DHT22;12791;50.992;13.788;2023-06-26T03:23:42;17.80;99.90
24664;DHT22;12791;50.992;13.788;2023-06-26T03:26:10;17.80;99.90
24664;DHT22;12791;50.992;13.788;2023-06-26T03:28:42;17.80;99.90
24664;DHT22;12791;50.992;13.788;2023-06-26T03:31:10;17.80;99.90
24664;DHT22;12791;50.992;13.788;2023-06-26T03:33:38;17.80;99.90
24664;DHT22;12791;50.992;13.788;2023-06-26T03:36:07;17.80;99.90
24664;DHT22;12791;50.992;13.788;2023-06-26T03:38:34;17.90;99.90
24664;DHT22;12791;50.992;13.788;2023-06-26T03:41:02;17.90;99.90
24664;DHT22;12791;50.992;13.788;2023-06-26T03:43:32;17.90;99.90
24664;DHT22;12791;50.992;13.788;2023-06-26T03:45:59;17.80;99.90
24664;DHT22;12791;50.992;13.788;2023-06-26T03:48:26;18.00;99.90
24664;DHT22;12791;50.992;13.788;2023-06-26T03:50:53;17.90;99.90
24664;DHT22;12791;50.992;13.788;2023-06-26T03:53:21;18.00;99.90
24664;DHT22;12791;50.992;13.788;2023-06-26T03:55:48;18.00;99.90
24664;DHT22;12791;50.992;13.788;2023-06-26T03:58:15;17.90;99.90
24664;DHT22;12791;50.992;13.788;2023-06-26T04:00:43;18.00;99.90
24664;DHT22;12791;50.992;13.788;2023-06-26T04:03:12;18.00;99.90
24664;DHT22;12791;50.992;13.788;2023-06-26T04:05:40;18.10;99.90
24664;DHT22;12791;50.992;13.788;2023-06-26T04:08:10;18.10;99.90
24664;DHT22;12791;50.992;13.788;2023-06-26T04:10:43;18.10;99.90
24664;DHT22;12791;50.992;13.788;2023-06-26T04:13:14;18.20;99.90
24664;DHT22;12791;50.992;13.788;2023-06-26T04:15:43;18.30;99.90
24664;DHT22;12791;50.992;13.788;2023-06-26T04:18:10;18.30;99.90
24664;DHT22;12791;50.992;13.788;2023-06-26T04:20:40;18.40;99.90
24664;DHT22;12791;50.992;13.788;2023-06-26T04:23:10;18.50;99.90
24664;DHT22;12791;50.992;13.788;2023-06-26T04:25:38;18.50;99.90
24664;DHT22;12791;50.992;13.788;2023-06-26T04:28:05;18.50;99.90
24664;DHT22;12791;50.992;13.788;2023-06-26T04:30:32;18.60;99.90
24664;DHT22;12791;50.992;13.788;2023-06-26T04:33:04;18.60;99.90
24664;DHT22;12791;50.992;13.788;2023-06-26T04:35:33;18.60;99.90
24664;DHT22;12791;50.992;13.788;2023-06-26T04:38:02;18.70;99.90
24664;DHT22;12791;50.992;13.788;2023-06-26T04:40:33;18.70;99.90
24664;DHT22;12791;50.992;13.788;2023-06-26T04:43:01;18.80;99.90
24664;DHT22;12791;50.992;13.788;2023-06-26T04:45:36;18.80;99.90
24664;DHT22;12791;50.992;13.788;2023-06-26T04:48:06;18.90;99.90
24664;DHT22;12791;50.992;13.788;2023-06-26T04:50:34;19.00;99.90
24664;DHT22;12791;50.992;13.788;2023-06-26T04:53:01;19.10;99.90
24664;DHT22;12791;50.992;13.788;2023-06-26T04:55:37;19.20;99.90
24664;DHT22;12791;50.992;13.788;2023-06-26T04:58:04;19.20;99.90
24664;DHT22;12791;50.992;13.788;2023-06-26T05:00:33;19.30;99.90
24664;DHT22;12791;50.992;13.788;2023-06-26T05:03:01;19.30;99.90
24664;DHT22;12791;50.992;13.788;2023-06-26T05:05:30;19.30;99.90
24664;DHT22;12791;50.992;13.788;2023-06-26T05:07:58;19.40;99.90
24664;DHT22;12791;50.992;13.788;2023-06-26T05:10:39;19.40;99.90
24664;DHT22;12791;50.992;13.788;2023-06-26T05:13:07;19.50;99.90
24664;DHT22;12791;50.992;13.788;2023-06-26T05:15:51;19.50;99.90
24664;DHT22;12791;50.992;13.788;2023-06-26T05:18:24;19.60;99.90
24664;DHT22;12791;50.992;13.788;2023-06-26T05:21:07;19.60;99.90
24664;DHT22;12791;50.992;13.788;2023-06-26T05:23:36;19.70;99.90
24664;DHT22;12791;50.992;13.788;2023-06-26T05:26:06;19.80;99.90
24664;DHT22;12791;50.992;13.788;2023-06-26T05:28:36;19.90;99.90
24664;DHT22;12791;50.992;13.788;2023-06-26T05:31:12;20.00;99.90
24664;DHT22;12791;50.992;13.788;2023-06-26T05:33:43;20.00;99.90
24664;DHT22;12791;50.992;13.788;2023-06-26T05:36:14;20.00;99.90
24664;DHT22;12791;50.992;13.788;2023-06-26T05:38:46;20.20;99.90
24664;DHT22;12791;50.992;13.788;2023-06-26T05:41:30;20.20;99.90
24664;DHT22;12791;50.992;13.788;2023-06-26T05:44:02;20.20;99.90
24664;DHT22;12791;50.992;13.788;2023-06-26T05:46:32;20.30;99.90
24664;DHT22;12791;50.992;13.788;2023-06-26T05:49:04;20.40;99.90
24664;DHT22;12791;50.992;13.788;2023-06-26T05:51:37;20.40;99.90
24664;DHT22;12791;50.992;13.788;2023-06-26T05:54:12;20.50;99.90
24664;DHT22;12791;50.992;13.788;2023-06-26T05:56:40;20.60;99.90
24664;DHT22;12791;50.992;13.788;2023-06-26T05:59:09;20.70;99.90
24664;DHT22;12791;50.992;13.788;2023-06-26T06:01:38;20.70;99.90
24664;DHT22;12791;50.992;13.788;2023-06-26T06:04:06;20.80;99.90
24664;DHT22;12791;50.992;13.788;2023-06-26T06:06:36;20.80;99.90
24664;DHT22;12791;50.992;13.788;2023-06-26T06:09:04;20.90;99.90
24664;DHT22;12791;50.992;13.788;2023-06-26T06:11:35;20.90;99.90
24664;DHT22;12791;50.992;13.788;2023-06-26T06:14:03;21.00;99.90
24664;DHT22;12791;50.992;13.788;2023-06-26T06:16:30;21.00;99.90
24664;DHT22;12791;50.992;13.788;2023-06-26T06:19:12;21.00;99.90
24664;DHT22;12791;50.992;13.788;2023-06-26T06:21:44;21.10;99.90
24664;DHT22;12791;50.992;13.788;2023-06-26T06:24:11;21.20;99.90
24664;DHT22;12791;50.992;13.788;2023-06-26T06:26:38;21.20;99.90
24664;DHT22;12791;50.992;13.788;2023-06-26T06:29:06;21.20;99.90
24664;DHT22;12791;50.992;13.788;2023-06-26T06:31:37;21.20;99.90
24664;DHT22;12791;50.992;13.788;2023-06-26T06:34:05;21.30;99.90
24664;DHT22;12791;50.992;13.788;2023-06-26T06:36:35;21.40;99.90
24664;DHT22;12791;50.992;13.788;2023-06-26T06:39:12;21.40;99.90
24664;DHT22;12791;50.992;13.788;2023-06-26T06:41:59;21.50;99.90
24664;DHT22;12791;50.992;13.788;2023-06-26T06:44:30;21.50;99.90
24664;DHT22;12791;50.992;13.788;2023-06-26T06:50:10;21.60;99.90
24664;DHT22;12791;50.992;13.788;2023-06-26T06:52:38;21.80;99.60
24664;DHT22;12791;50.992;13.788;2023-06-26T06:55:10;21.90;99.20
24664;DHT22;12791;50.992;13.788;2023-06-26T06:57:42;21.90;98.60
24664;DHT22;12791;50.992;13.788;2023-06-26T07:00:11;22.00;97.30
24664;DHT22;12791;50.992;13.788;2023-06-26T07:02:42;22.10;97.40
24664;DHT22;12791;50.992;13.788;2023-06-26T07:05:13;22.20;94.90
24664;DHT22;12791;50.992;13.788;2023-06-26T07:07:40;22.20;94.40
24664;DHT22;12791;50.992;13.788;2023-06-26T07:10:12;22.30;93.80
24664;DHT22;12791;50.992;13.788;2023-06-26T07:12:40;22.40;91.30
24664;DHT22;12791;50.992;13.788;2023-06-26T07:15:08;22.50;90.30
24664;DHT22;12791;50.992;13.788;2023-06-26T07:17:38;22.50;90.30
24664;DHT22;12791;50.992;13.788;2023-06-26T07:20:09;22.60;88.40
24664;DHT22;12791;50.992;13.788;2023-06-26T07:22:41;22.60;87.30
24664;DHT22;12791;50.992;13.788;2023-06-26T07:25:11;22.70;86.40
24664;DHT22;12791;50.992;13.788;2023-06-26T07:27:39;22.80;86.00
24664;DHT22;12791;50.992;13.788;2023-06-26T07:30:08;22.80;86.60
24664;DHT22;12791;50.992;13.788;2023-06-26T07:32:40;22.90;85.70
24664;DHT22;12791;50.992;13.788;2023-06-26T07:35:16;23.00;88.00
24664;DHT22;12791;50.992;13.788;2023-06-26T07:37:49;23.00;87.70
24664;DHT22;12791;50.992;13.788;2023-06-26T07:40:44;23.10;87.00
24664;DHT22;12791;50.992;13.788;2023-06-26T08:00:13;23.70;80.50
24664;DHT22;12791;50.992;13.788;2023-06-26T08:02:59;23.80;81.40
24664;DHT22;12791;50.992;13.788;2023-06-26T08:05:54;24.00;80.60
24664;DHT22;12791;50.992;13.788;2023-06-26T08:08:40;24.10;77.40
24664;DHT22;12791;50.992;13.788;2023-06-26T08:18:09;24.50;73.20
24664;DHT22;12791;50.992;13.788;2023-06-26T08:21:23;24.60;71.80
24664;DHT22;12791;50.992;13.788;2023-06-26T08:23:53;24.70;71.10
24664;DHT22;12791;50.992;13.788;2023-06-26T08:26:49;24.70;69.00
24664;DHT22;12791;50.992;13.788;2023-06-26T08:29:34;24.70;66.40
24664;DHT22;12791;50.992;13.788;2023-06-26T08:32:37;24.80;66.70
24664;DHT22;12791;50.992;13.788;2023-06-26T08:35:22;24.90;62.30
24664;DHT22;12791;50.992;13.788;2023-06-26T08:37:49;24.90;61.10
24664;DHT22;12791;50.992;13.788;2023-06-26T08:40:17;25.00;58.00
24664;DHT22;12791;50.992;13.788;2023-06-26T08:42:49;25.10;58.70
24664;DHT22;12791;50.992;13.788;2023-06-26T08:45:24;25.20;59.20
24664;DHT22;12791;50.992;13.788;2023-06-26T08:47:55;25.20;59.90
24664;DHT22;12791;50.992;13.788;2023-06-26T08:57:48;25.30;57.30
24664;DHT22;12791;50.992;13.788;2023-06-26T09:00:22;25.40;56.80
24664;DHT22;12791;50.992;13.788;2023-06-26T09:02:49;25.40;56.30
24664;DHT22;12791;50.992;13.788;2023-06-26T09:05:17;25.50;57.00
24664;DHT22;12791;50.992;13.788;2023-06-26T09:07:44;25.50;55.80
24664;DHT22;12791;50.992;13.788;2023-06-26T09:10:11;25.50;56.00
24664;DHT22;12791;50.992;13.788;2023-06-26T09:12:38;25.50;56.50
24664;DHT22;12791;50.992;13.788;2023-06-26T09:15:14;25.50;57.10
24664;DHT22;12791;50.992;13.788;2023-06-26T09:25:03;25.40;52.50
24664;DHT22;12791;50.992;13.788;2023-06-26T09:27:30;25.50;52.70
24664;DHT22;12791;50.992;13.788;2023-06-26T09:30:01;25.50;53.20
24664;DHT22;12791;50.992;13.788;2023-06-26T09:35:16;25.60;52.60
24664;DHT22;12791;50.992;13.788;2023-06-26T09:40:57;25.90;52.40
24664;DHT22;12791;50.992;13.788;2023-06-26T09:43:27;26.00;53.20
24664;DHT22;12791;50.992;13.788;2023-06-26T09:45:56;26.10;52.90
24664;DHT22;12791;50.992;13.788;2023-06-26T09:48:25;26.20;52.10
24664;DHT22;12791;50.992;13.788;2023-06-26T09:50:53;26.20;52.00
24664;DHT22;12791;50.992;13.788;2023-06-26T09:53:28;26.10;52.80
24664;DHT22;12791;50.992;13.788;2023-06-26T09:55:55;26.00;53.40
24664;DHT22;12791;50.992;13.788;2023-06-26T09:58:27;25.80;53.70
24664;DHT22;12791;50.992;13.788;2023-06-26T10:00:55;25.70;54.40
24664;DHT22;12791;50.992;13.788;2023-06-26T10:03:26;25.60;54.70
24664;DHT22;12791;50.992;13.788;2023-06-26T10:05:54;25.60;55.30
24664;DHT22;12791;50.992;13.788;2023-06-26T10:08:24;25.60;55.10
24664;DHT22;12791;50.992;13.788;2023-06-26T10:10:52;25.60;54.40
24664;DHT22;12791;50.992;13.788;2023-06-26T10:13:30;25.60;53.40
24664;DHT22;12791;50.992;13.788;2023-06-26T10:15:59;25.60;52.80
24664;DHT22;12791;50.992;13.788;2023-06-26T10:22:11;25.70;53.30
24664;DHT22;12791;50.992;13.788;2023-06-26T10:24:47;25.90;51.90
24664;DHT22;12791;50.992;13.788;2023-06-26T10:27:28;26.00;51.60
24664;DHT22;12791;50.992;13.788;2023-06-26T10:30:00;26.10;50.70
24664;DHT22;12791;50.992;13.788;2023-06-26T10:32:28;26.20;51.20
24664;DHT22;12791;50.992;13.788;2023-06-26T10:35:06;26.30;50.80
24664;DHT22;12791;50.992;13.788;2023-06-26T10:37:45;26.30;50.80
24664;DHT22;12791;50.992;13.788;2023-06-26T10:49:51;26.20;48.60
24664;DHT22;12791;50.992;13.788;2023-06-26T10:52:45;26.20;48.70
24664;DHT22;12791;50.992;13.788;2023-06-26T10:55:43;26.20;48.30
24664;DHT22;12791;50.992;13.788;2023-06-26T11:02:20;26.40;48.90
24664;DHT22;12791;50.992;13.788;2023-06-26T11:08:11;26.40;47.80
24664;DHT22;12791;50.992;13.788;2023-06-26T11:13:10;26.70;48.50
24664;DHT22;12791;50.992;13.788;2023-06-26T11:15:37;26.80;48.60
24664;DHT22;12791;50.992;13.788;2023-06-26T11:18:04;26.80;48.60
24664;DHT22;12791;50.992;13.788;2023-06-26T11:20:31;26.90;48.10
24664;DHT22;12791;50.992;13.788;2023-06-26T11:22:58;27.00;47.40
24664;DHT22;12791;50.992;13.788;2023-06-26T11:25:26;27.00;47.90
24664;DHT22;12791;50.992;13.788;2023-06-26T11:27:53;27.00;47.60
24664;DHT22;12791;50.992;13.788;2023-06-26T11:30:24;27.10;47.10
24664;DHT22;12791;50.992;13.788;2023-06-26T11:32:51;27.10;47.40
24664;DHT22;12791;50.992;13.788;2023-06-26T11:35:22;27.10;47.30
24664;DHT22;12791;50.992;13.788;2023-06-26T11:37:55;27.10;46.30
24664;DHT22;12791;50.992;13.788;2023-06-26T11:40:23;27.00;46.00
24664;DHT22;12791;50.992;13.788;2023-06-26T11:42:53;27.10;45.80
24664;DHT22;12791;50.992;13.788;2023-06-26T11:45:20;27.10;46.20
24664;DHT22;12791;50.992;13.788;2023-06-26T11:47:47;27.10;47.30
24664;DHT22;12791;50.992;13.788;2023-06-26T11:50:15;27.20;47.40
24664;DHT22;12791;50.992;13.788;2023-06-26T11:52:42;27.30;46.60
24664;DHT22;12791;50.992;13.788;2023-06-26T11:55:09;27.30;46.10
24664;DHT22;12791;50.992;13.788;2023-06-26T11:57:36;27.40;44.60
24664;DHT22;12791;50.992;13.788;2023-06-26T12:00:14;27.60;45.30
24664;DHT22;12791;50.992;13.788;2023-06-26T12:02:41;27.60;45.60
24664;DHT22;12791;50.992;13.788;2023-06-26T12:05:09;27.70;45.60
24664;DHT22;12791;50.992;13.788;2023-06-26T12:07:36;27.80;45.90
24664;DHT22;12791;50.992;13.788;2023-06-26T12:10:04;27.90;46.20
24664;DHT22;12791;50.992;13.788;2023-06-26T12:12:32;28.00;46.30
24664;DHT22;12791;50.992;13.788;2023-06-26T12:14:59;28.00;44.60
24664;DHT22;12791;50.992;13.788;2023-06-26T12:17:27;28.00;44.70
24664;DHT22;12791;50.992;13.788;2023-06-26T12:19:54;28.10;44.50
24664;DHT22;12791;50.992;13.788;2023-06-26T12:22:21;28.00;43.60
24664;DHT22;12791;50.992;13.788;2023-06-26T12:24:48;28.00;43.70
24664;DHT22;12791;50.992;13.788;2023-06-26T12:27:17;28.00;44.70
24664;DHT22;12791;50.992;13.788;2023-06-26T12:29:49;28.00;44.40
24664;DHT22;12791;50.992;13.788;2023-06-26T12:32:16;28.00;44.50
24664;DHT22;12791;50.992;13.788;2023-06-26T12:34:48;28.00;44.70
24664;DHT22;12791;50.992;13.788;2023-06-26T12:37:16;28.10;44.80
24664;DHT22;12791;50.992;13.788;2023-06-26T12:39:46;28.10;44.90
24664;DHT22;12791;50.992;13.788;2023-06-26T12:42:14;28.20;44.50
24664;DHT22;12791;50.992;13.788;2023-06-26T12:44:41;28.20;44.30
24664;DHT22;12791;50.992;13.788;2023-06-26T12:47:07;28.30;44.30
24664;DHT22;12791;50.992;13.788;2023-06-26T12:49:36;28.30;43.40
24664;DHT22;12791;50.992;13.788;2023-06-26T12:52:06;28.30;42.30
24664;DHT22;12791;50.992;13.788;2023-06-26T12:54:33;28.40;42.30
24664;DHT22;12791;50.992;13.788;2023-06-26T12:57:00;28.50;43.60
24664;DHT22;12791;50.992;13.788;2023-06-26T12:59:27;28.60;42.90
24664;DHT22;12791;50.992;13.788;2023-06-26T13:01:53;28.60;42.40
24664;DHT22;12791;50.992;13.788;2023-06-26T13:04:20;28.60;41.80
24664;DHT22;12791;50.992;13.788;2023-06-26T13:06:47;28.60;42.00
24664;DHT22;12791;50.992;13.788;2023-06-26T13:09:14;28.70;42.70
24664;DHT22;12791;50.992;13.788;2023-06-26T13:11:41;28.70;42.70
24664;DHT22;12791;50.992;13.788;2023-06-26T13:14:08;28.70;43.40
24664;DHT22;12791;50.992;13.788;2023-06-26T13:16:36;28.90;42.30
24664;DHT22;12791;50.992;13.788;2023-06-26T13:19:03;28.90;42.90
24664;DHT22;12791;50.992;13.788;2023-06-26T13:21:29;29.00;42.60
24664;DHT22;12791;50.992;13.788;2023-06-26T13:23:56;29.00;41.70
24664;DHT22;12791;50.992;13.788;2023-06-26T13:26:26;29.10;41.20
24664;DHT22;12791;50.992;13.788;2023-06-26T13:28:54;29.10;41.20
24664;DHT22;12791;50.992;13.788;2023-06-26T13:31:21;29.10;41.10
24664;DHT22;12791;50.992;13.788;2023-06-26T13:33:48;29.10;41.30
24664;DHT22;12791;50.992;13.788;2023-06-26T13:36:15;29.10;40.00
24664;DHT22;12791;50.992;13.788;2023-06-26T13:38:42;29.10;40.40
24664;DHT22;12791;50.992;13.788;2023-06-26T13:41:08;29.20;40.80
24664;DHT22;12791;50.992;13.788;2023-06-26T13:43:36;29.30;41.10
24664;DHT22;12791;50.992;13.788;2023-06-26T13:46:03;29.30;40.90
24664;DHT22;12791;50.992;13.788;2023-06-26T13:48:29;29.30;40.90
24664;DHT22;12791;50.992;13.788;2023-06-26T13:50:57;29.40;40.10
24664;DHT22;12791;50.992;13.788;2023-06-26T13:53:23;29.40;40.10
24664;DHT22;12791;50.992;13.788;2023-06-26T13:55:50;29.50;40.30
24664;DHT22;12791;50.992;13.788;2023-06-26T13:58:17;29.50;37.90
24664;DHT22;12791;50.992;13.788;2023-06-26T14:00:49;29.50;38.60
24664;DHT22;12791;50.992;13.788;2023-06-26T14:03:15;29.50;39.00
24664;DHT22;12791;50.992;13.788;2023-06-26T14:05:43;29.50;38.80
24664;DHT22;12791;50.992;13.788;2023-06-26T14:08:09;29.40;38.40
24664;DHT22;12791;50.992;13.788;2023-06-26T14:10:36;29.40;38.40
24664;DHT22;12791;50.992;13.788;2023-06-26T14:13:03;29.50;39.70
24664;DHT22;12791;50.992;13.788;2023-06-26T14:15:30;29.60;39.60
24664;DHT22;12791;50.992;13.788;2023-06-26T14:17:58;29.80;39.40
24664;DHT22;12791;50.992;13.788;2023-06-26T14:20:25;30.00;37.50
24664;DHT22;12791;50.992;13.788;2023-06-26T14:22:53;30.10;34.50
24664;DHT22;12791;50.992;13.788;2023-06-26T14:25:19;30.20;33.20
24664;DHT22;12791;50.992;13.788;2023-06-26T14:27:46;30.20;34.00
24664;DHT22;12791;50.992;13.788;2023-06-26T14:30:12;30.20;35.50
24664;DHT22;12791;50.992;13.788;2023-06-26T14:32:39;30.20;36.30
24664;DHT22;12791;50.992;13.788;2023-06-26T14:35:07;30.20;35.30
24664;DHT22;12791;50.992;13.788;2023-06-26T14:37:36;30.20;36.50
24664;DHT22;12791;50.992;13.788;2023-06-26T14:40:05;30.30;37.00
24664;DHT22;12791;50.992;13.788;2023-06-26T14:42:32;30.40;36.40
24664;DHT22;12791;50.992;13.788;2023-06-26T14:44:59;30.50;35.90
24664;DHT22;12791;50.992;13.788;2023-06-26T14:47:25;30.70;35.80
24664;DHT22;12791;50.992;13.788;2023-06-26T14:49:52;30.80;36.50
24664;DHT22;12791;50.992;13.788;2023-06-26T14:52:20;30.90;35.70
24664;DHT22;12791;50.992;13.788;2023-06-26T14:54:47;31.00;35.30
24664;DHT22;12791;50.992;13.788;2023-06-26T14:57:13;31.10;35.80
24664;DHT22;12791;50.992;13.788;2023-06-26T14:59:40;31.10;35.20
24664;DHT22;12791;50.992;13.788;2023-06-26T15:02:06;31.20;34.60
24664;DHT22;12791;50.992;13.788;2023-06-26T15:04:33;31.20;35.50
24664;DHT22;12791;50.992;13.788;2023-06-26T15:06:59;31.30;34.50
24664;DHT22;12791;50.992;13.788;2023-06-26T15:09:27;31.30;33.70
24664;DHT22;12791;50.992;13.788;2023-06-26T15:11:54;31.30;33.80
24664;DHT22;12791;50.992;13.788;2023-06-26T15:14:20;31.30;33.90
24664;DHT22;12791;50.992;13.788;2023-06-26T15:16:47;31.30;34.40
24664;DHT22;12791;50.992;13.788;2023-06-26T15:19:14;31.30;34.20
24664;DHT22;12791;50.992;13.788;2023-06-26T15:21:40;31.30;34.90
24664;DHT22;12791;50.992;13.788;2023-06-26T15:24:07;31.30;35.60
24664;DHT22;12791;50.992;13.788;2023-06-26T15:26:35;31.30;36.10
24664;DHT22;12791;50.992;13.788;2023-06-26T15:29:02;31.40;35.90
24664;DHT22;12791;50.992;13.788;2023-06-26T15:31:29;31.40;35.30
24664;DHT22;12791;50.992;13.788;2023-06-26T15:33:56;31.30;35.60
24664;DHT22;12791;50.992;13.788;2023-06-26T15:36:22;31.10;35.50
24664;DHT22;12791;50.992;13.788;2023-06-26T15:38:49;31.00;35.40
24664;DHT22;12791;50.992;13.788;2023-06-26T15:41:15;30.90;36.00
24664;DHT22;12791;50.992;13.788;2023-06-26T15:43:43;30.70;36.40
24664;DHT22;12791;50.992;13.788;2023-06-26T15:46:10;30.50;36.50
24664;DHT22;12791;50.992;13.788;2023-06-26T15:48:36;30.30;37.30
24664;DHT22;12791;50.992;13.788;2023-06-26T15:51:03;30.10;38.30
24664;DHT22;12791;50.992;13.788;2023-06-26T15:53:34;30.00;39.20
24664;DHT22;12791;50.992;13.788;2023-06-26T15:56:05;29.80;40.20
24664;DHT22;12791;50.992;13.788;2023-06-26T15:58:32;29.70;41.60
24664;DHT22;12791;50.992;13.788;2023-06-26T16:01:01;29.50;41.50
24664;DHT22;12791;50.992;13.788;2023-06-26T16:03:28;29.40;42.70
24664;DHT22;12791;50.992;13.788;2023-06-26T16:05:55;29.20;43.30
24664;DHT22;12791;50.992;13.788;2023-06-26T16:08:21;29.10;43.80
24664;DHT22;12791;50.992;13.788;2023-06-26T16:10:48;29.00;43.20
24664;DHT22;12791;50.992;13.788;2023-06-26T16:13:14;28.90;43.10
24664;DHT22;12791;50.992;13.788;2023-06-26T16:15:44;28.70;43.80
24664;DHT22;12791;50.992;13.788;2023-06-26T16:18:11;28.60;44.10
24664;DHT22;12791;50.992;13.788;2023-06-26T16:20:38;28.50;44.40
24664;DHT22;12791;50.992;13.788;2023-06-26T16:23:05;28.40;45.30
24664;DHT22;12791;50.992;13.788;2023-06-26T16:25:32;28.30;46.80
24664;DHT22;12791;50.992;13.788;2023-06-26T16:27:59;28.00;49.00
24664;DHT22;12791;50.992;13.788;2023-06-26T16:30:26;27.70;50.50
24664;DHT22;12791;50.992;13.788;2023-06-26T16:32:52;27.40;52.20
24664;DHT22;12791;50.992;13.788;2023-06-26T16:35:20;27.00;60.40
24664;DHT22;12791;50.992;13.788;2023-06-26T16:37:47;26.40;69.40
24664;DHT22;12791;50.992;13.788;2023-06-26T16:40:13;25.70;72.60
24664;DHT22;12791;50.992;13.788;2023-06-26T16:42:40;25.10;76.90
24664;DHT22;12791;50.992;13.788;2023-06-26T16:45:08;24.50;79.30